Time;durP1;ratioP1;P1;durP2;ratioP2;P2;SDS_P1;SDS_P2;PMS_P1;PMS_P2;Temp;Humidity;BMP_temperature;BMP_pressure;BME280_temperature;BME280_humidity;BME280_pressure;Samples;Min_cycle;Max_cycle;Signal;HPM_P1;HPM_P2
2021/12/04 00:00:11;;;;;;;2.38;1.65;;;;;;;-144.99;100.00;57660.31;346065;28;1259;-66
2021/12/04 00:00:23;;;;;;;2.20;1.55;;;;;;;-144.99;100.00;57660.31;346575;28;2122;-65
2021/12/04 00:00:50;;;;;;;3.13;1.65;;;;;;;-144.99;100.00;57660.31;347620;28;1839;-66
2021/12/04 00:01:08;;;;;;;2.85;1.80;;;;;;;-144.99;100.00;57660.31;346525;28;2100;-65
2021/12/04 00:01:26;;;;;;;2.92;1.80;;;;;;;-144.99;100.00;57660.31;346936;28;1859;-66
2021/12/04 00:01:40;;;;;;;3.08;1.90;;;;;;;-144.99;100.00;57660.31;347893;28;1257;-66
2021/12/04 00:01:55;;;;;;;2.70;1.70;;;;;;;-144.99;100.00;57660.31;347769;28;1037;-65
2021/12/04 00:02:08;;;;;;;3.42;1.55;;;;;;;-144.99;100.00;57660.31;347648;28;1914;-65
2021/12/04 00:02:21;;;;;;;3.80;1.70;;;;;;;-144.99;100.00;57660.31;348131;28;1290;-67
2021/12/04 00:02:33;;;;;;;3.72;1.70;;;;;;;-144.99;100.00;57660.31;347770;28;1030;-65
2021/12/04 00:02:45;;;;;;;3.60;1.70;;;;;;;-144.99;100.00;57660.31;347871;28;994;-65
2021/12/04 00:02:57;;;;;;;3.65;1.70;;;;;;;-144.99;100.00;57660.31;347551;28;1554;-66
2021/12/04 00:03:09;;;;;;;2.85;1.70;;;;;;;-144.99;100.00;57660.31;347221;28;1955;-65
2021/12/04 00:03:21;;;;;;;2.53;1.77;;;;;;;-144.99;100.00;57660.31;347490;28;1260;-65
2021/12/04 00:03:33;;;;;;;2.50;1.80;;;;;;;-144.99;100.00;57660.31;347703;28;1126;-65
2021/12/04 00:03:45;;;;;;;2.30;1.70;;;;;;;-144.99;100.00;57660.31;347768;28;1106;-65
2021/12/04 00:03:59;;;;;;;2.90;1.77;;;;;;;-144.99;100.00;57660.31;347479;28;1755;-65
2021/12/04 00:04:11;;;;;;;3.83;1.73;;;;;;;-144.99;100.00;57660.31;347644;28;1357;-64
2021/12/04 00:04:32;;;;;;;4.18;1.70;;;;;;;-144.99;100.00;57660.31;347406;28;1071;-66
2021/12/04 00:04:48;;;;;;;2.13;1.50;;;;;;;-144.99;100.00;57660.31;347257;28;2144;-65
2021/12/04 00:05:02;;;;;;;1.92;1.42;;;;;;;-144.99;100.00;57660.31;346688;28;1085;-65
2021/12/04 00:05:14;;;;;;;2.72;1.65;;;;;;;-144.99;100.00;57660.31;347612;28;953;-66
2021/12/04 00:05:26;;;;;;;3.25;1.77;;;;;;;-144.99;100.00;57660.31;346359;28;1289;-66
2021/12/04 00:05:41;;;;;;;3.55;1.70;;;;;;;-144.99;100.00;57660.31;346298;28;1958;-66
2021/12/04 00:05:56;;;;;;;2.95;1.70;;;;;;;-144.99;100.00;57660.31;346274;28;1106;-66
2021/12/04 00:06:16;;;;;;;2.03;1.58;;;;;;;-144.99;100.00;57660.31;346414;28;1322;-66
2021/12/04 00:06:32;;;;;;;2.80;1.50;;;;;;;-144.99;100.00;57660.31;346341;28;1041;-66
2021/12/04 00:06:45;;;;;;;2.67;1.63;;;;;;;-144.99;100.00;57660.31;346584;28;1270;-65
2021/12/04 00:06:57;;;;;;;2.42;1.70;;;;;;;-144.99;100.00;57660.31;346168;28;2098;-65
2021/12/04 00:07:10;;;;;;;3.15;1.73;;;;;;;-144.99;100.00;57660.31;347547;28;1195;-66
2021/12/04 00:07:23;;;;;;;3.35;1.63;;;;;;;-144.99;100.00;57660.31;347567;28;1509;-66
2021/12/04 00:07:37;;;;;;;3.53;1.70;;;;;;;-144.99;100.00;57660.31;346633;28;1936;-66
2021/12/04 00:07:49;;;;;;;3.80;1.75;;;;;;;-144.99;100.00;57660.31;347442;28;1287;-66
2021/12/04 00:08:01;;;;;;;3.13;1.42;;;;;;;-144.99;100.00;57660.31;347444;28;1362;-66
2021/12/04 00:08:14;;;;;;;3.00;1.48;;;;;;;-144.99;100.00;57660.31;347828;28;1077;-66
2021/12/04 00:08:28;;;;;;;2.53;1.42;;;;;;;-144.99;100.00;57660.31;347142;28;1970;-65
2021/12/04 00:08:44;;;;;;;3.30;1.63;;;;;;;-144.99;100.00;57660.31;347417;28;984;-65
2021/12/04 00:09:03;;;;;;;4.07;1.73;;;;;;;-144.99;100.00;57660.31;347468;28;1670;-66
2021/12/04 00:09:18;;;;;;;3.33;1.75;;;;;;;-144.99;100.00;57660.31;347982;28;1452;-66
2021/12/04 00:09:30;;;;;;;2.75;1.75;;;;;;;-144.99;100.00;57660.31;347643;28;1045;-66
2021/12/04 00:09:46;;;;;;;2.55;1.67;;;;;;;-144.99;100.00;57660.31;347841;28;1043;-66
2021/12/04 00:10:01;;;;;;;2.47;1.70;;;;;;;-144.99;100.00;57660.31;347696;28;1819;-65
2021/12/04 00:10:18;;;;;;;2.60;1.65;;;;;;;-144.99;100.00;57660.31;347687;28;1041;-66
2021/12/04 00:10:31;;;;;;;3.67;1.80;;;;;;;-144.99;100.00;57660.31;346767;28;2515;-65
2021/12/04 00:10:43;;;;;;;3.58;1.80;;;;;;;-144.99;100.00;57660.31;346131;28;1053;-65
2021/12/04 00:10:55;;;;;;;3.28;1.75;;;;;;;-144.99;100.00;57660.31;346625;28;1286;-66
2021/12/04 00:11:07;;;;;;;2.08;1.52;;;;;;;-144.99;100.00;57660.31;347441;28;1998;-65
2021/12/04 00:11:19;;;;;;;2.47;1.60;;;;;;;-144.99;100.00;57660.31;347703;28;1163;-66
2021/12/04 00:11:33;;;;;;;2.58;1.60;;;;;;;-144.99;100.00;57660.31;347132;28;1988;-66
2021/12/04 00:11:54;;;;;;;2.28;1.60;;;;;;;-144.99;100.00;57660.31;347784;28;1335;-66
2021/12/04 00:12:07;;;;;;;3.13;1.80;;;;;;;-144.99;100.00;57660.31;347302;28;1802;-65
2021/12/04 00:12:20;;;;;;;3.35;1.83;;;;;;;-144.99;100.00;57660.31;348101;28;1096;-66
2021/12/04 00:12:34;;;;;;;3.58;1.75;;;;;;;-144.99;100.00;57660.31;347746;28;1014;-66
2021/12/04 00:12:46;;;;;;;3.03;1.60;;;;;;;-144.99;100.00;57660.31;346938;28;2173;-65
2021/12/04 00:12:58;;;;;;;2.03;1.60;;;;;;;-144.99;100.00;57660.31;347405;28;1457;-65
2021/12/04 00:13:10;;;;;;;2.55;1.60;;;;;;;-144.99;100.00;57660.31;347874;28;1317;-66
2021/12/04 00:13:22;;;;;;;2.72;1.50;;;;;;;-144.99;100.00;57660.31;347099;28;1572;-65
2021/12/04 00:13:34;;;;;;;2.67;1.75;;;;;;;-144.99;100.00;57660.31;346253;28;1049;-67
2021/12/04 00:13:47;;;;;;;2.45;1.90;;;;;;;-144.99;100.00;57660.31;346413;28;1206;-65
2021/12/04 00:13:59;;;;;;;3.38;1.92;;;;;;;-144.99;100.00;57660.31;346532;28;1599;-65
2021/12/04 00:14:11;;;;;;;4.14;1.88;;;;;;;-144.99;100.00;57660.31;347620;28;1076;-65
2021/12/04 00:14:23;;;;;;;3.85;1.80;;;;;;;-144.99;100.00;57660.31;347487;28;1027;-66
2021/12/04 00:14:37;;;;;;;3.00;1.77;;;;;;;-144.99;100.00;57660.31;347006;28;1750;-65
2021/12/04 00:14:49;;;;;;;3.20;1.80;;;;;;;-144.99;100.00;57660.31;347065;28;2013;-66
2021/12/04 00:15:03;;;;;;;3.40;1.80;;;;;;;-144.99;100.00;57660.31;346687;28;1229;-65
2021/12/04 00:15:15;;;;;;;3.65;1.77;;;;;;;-144.99;100.00;57660.31;346117;28;1059;-66
2021/12/04 00:15:27;;;;;;;3.95;1.70;;;;;;;-144.99;100.00;57660.31;346136;28;1066;-66
2021/12/04 00:15:39;;;;;;;4.50;1.73;;;;;;;-144.99;100.00;57660.31;347001;28;1920;-66
2021/12/04 00:15:51;;;;;;;3.95;1.80;;;;;;;-144.99;100.00;57660.31;347691;28;1299;-66
2021/12/04 00:16:04;;;;;;;3.33;1.80;;;;;;;-144.99;100.00;57660.31;347659;28;1368;-66
2021/12/04 00:16:16;;;;;;;2.60;1.70;;;;;;;-144.99;100.00;57660.31;347732;28;1211;-65
2021/12/04 00:16:28;;;;;;;3.20;1.77;;;;;;;-144.99;100.00;57660.31;348178;28;739;-66
2021/12/04 00:16:40;;;;;;;3.25;1.90;;;;;;;-144.99;100.00;57660.31;348015;28;743;-66
2021/12/04 00:16:54;;;;;;;3.05;1.85;;;;;;;-144.99;100.00;57660.31;346877;28;2149;-66
2021/12/04 00:17:06;;;;;;;2.22;1.63;;;;;;;-144.99;100.00;57660.31;347278;28;1078;-66
2021/12/04 00:17:19;;;;;;;2.33;1.60;;;;;;;-144.99;100.00;57660.31;347533;28;1214;-66
2021/12/04 00:17:31;;;;;;;2.53;1.70;;;;;;;-144.99;100.00;57660.31;347447;28;1011;-66
2021/12/04 00:17:43;;;;;;;3.60;1.80;;;;;;;-144.99;100.00;57660.31;347043;28;2002;-65
2021/12/04 00:17:57;;;;;;;3.75;1.85;;;;;;;-144.99;100.00;57660.31;347392;28;1107;-66
2021/12/04 00:18:09;;;;;;;3.10;1.80;;;;;;;-144.99;100.00;57660.31;346192;28;2094;-65
2021/12/04 00:18:22;;;;;;;2.75;1.70;;;;;;;-144.99;100.00;57660.31;346417;28;1890;-66
2021/12/04 00:18:35;;;;;;;2.42;1.67;;;;;;;-144.99;100.00;57660.31;348050;28;915;-66
2021/12/04 00:18:47;;;;;;;3.45;1.83;;;;;;;-144.99;100.00;57660.31;347705;28;2298;-65
2021/12/04 00:18:59;;;;;;;4.05;2.00;;;;;;;-144.99;100.00;57660.31;347805;28;1655;-65
2021/12/04 00:19:12;;;;;;;4.45;2.10;;;;;;;-144.99;100.00;57660.31;347716;28;1197;-66
2021/12/04 00:19:25;;;;;;;3.20;1.83;;;;;;;-144.99;100.00;57660.31;347331;28;2157;-64
2021/12/04 00:19:37;;;;;;;3.13;1.80;;;;;;;-144.99;100.00;57660.31;346348;28;1066;-65
2021/12/04 00:19:49;;;;;;;3.85;1.90;;;;;;;-144.99;100.00;57660.31;346272;28;1050;-66
2021/12/04 00:20:04;;;;;;;5.20;1.85;;;;;;;-144.99;100.00;57660.31;346843;28;1668;-65
2021/12/04 00:20:16;;;;;;;4.40;1.90;;;;;;;-144.99;100.00;57660.31;347539;28;1028;-66
2021/12/04 00:20:30;;;;;;;3.60;1.80;;;;;;;-144.99;100.00;57660.31;347573;28;1002;-66
2021/12/04 00:20:42;;;;;;;4.18;1.88;;;;;;;-144.99;100.00;57660.31;347977;28;798;-65
2021/12/04 00:20:54;;;;;;;5.13;1.92;;;;;;;-144.99;100.00;57660.31;347594;28;1219;-65
2021/12/04 00:21:07;;;;;;;5.32;2.17;;;;;;;-144.99;100.00;57660.31;347552;28;1341;-66
2021/12/04 00:21:19;;;;;;;4.35;2.30;;;;;;;-144.99;100.00;57660.31;347005;28;2095;-65
2021/12/04 00:21:31;;;;;;;3.75;2.35;;;;;;;-144.99;100.00;57660.31;347521;28;1307;-65
2021/12/04 00:21:44;;;;;;;3.53;2.30;;;;;;;-144.99;100.00;57660.31;347793;28;1066;-66
2021/12/04 00:21:56;;;;;;;4.28;2.47;;;;;;;-144.99;100.00;57660.31;346789;28;2316;-66
2021/12/04 00:22:08;;;;;;;5.47;2.65;;;;;;;-144.99;100.00;57660.31;347842;28;2022;-66
2021/12/04 00:22:20;;;;;;;5.32;2.65;;;;;;;-144.99;100.00;57660.31;347390;28;1727;-66
2021/12/04 00:22:33;;;;;;;4.00;2.50;;;;;;;-144.99;100.00;57660.31;347736;28;1290;-65
2021/12/04 00:22:45;;;;;;;4.00;2.40;;;;;;;-144.99;100.00;57660.31;348201;28;767;-66
2021/12/04 00:22:59;;;;;;;5.68;2.50;;;;;;;-144.99;100.00;57660.31;347611;28;1626;-66
2021/12/04 00:23:12;;;;;;;5.63;2.58;;;;;;;-144.99;100.00;57660.31;347793;28;1132;-66
2021/12/04 00:23:24;;;;;;;4.00;2.47;;;;;;;-144.99;100.00;57660.31;347704;28;1304;-66
2021/12/04 00:23:36;;;;;;;3.97;2.50;;;;;;;-144.99;100.00;57660.31;347774;28;1291;-65
2021/12/04 00:23:48;;;;;;;4.22;2.60;;;;;;;-144.99;100.00;57660.31;347960;28;1074;-65
2021/12/04 00:24:00;;;;;;;4.40;2.63;;;;;;;-144.99;100.00;57660.31;347818;28;1336;-66
2021/12/04 00:24:12;;;;;;;4.88;2.70;;;;;;;-144.99;100.00;57660.31;347988;28;1068;-66
2021/12/04 00:24:25;;;;;;;4.38;2.60;;;;;;;-144.99;100.00;57660.31;346898;28;2228;-65
2021/12/04 00:24:37;;;;;;;4.80;2.75;;;;;;;-144.99;100.00;57660.31;347036;28;2134;-66
2021/12/04 00:24:49;;;;;;;4.47;2.70;;;;;;;-144.99;100.00;57660.31;345533;28;3691;-66
2021/12/04 00:25:04;;;;;;;4.15;2.67;;;;;;;-144.99;100.00;57660.31;347533;28;5619;-66
2021/12/04 00:25:16;;;;;;;4.55;2.67;;;;;;;-144.99;100.00;57660.31;347438;28;1710;-66
2021/12/04 00:25:28;;;;;;;5.60;2.95;;;;;;;-144.99;100.00;57660.31;346307;28;3423;-66
2021/12/04 00:25:40;;;;;;;5.97;3.10;;;;;;;-144.99;100.00;57660.31;346646;28;2489;-65
2021/12/04 00:25:52;;;;;;;5.40;2.97;;;;;;;-144.99;100.00;57660.31;347843;28;1088;-66
2021/12/04 00:26:05;;;;;;;4.88;2.80;;;;;;;-144.99;100.00;57660.31;347799;28;1412;-66
2021/12/04 00:26:17;;;;;;;5.45;2.90;;;;;;;-144.99;100.00;57660.31;347812;28;1069;-65
2021/12/04 00:26:29;;;;;;;5.18;2.67;;;;;;;-144.99;100.00;57660.31;347934;28;1076;-66
2021/12/04 00:26:41;;;;;;;5.38;2.70;;;;;;;-144.99;100.00;57660.31;347640;28;3172;-64
2021/12/04 00:26:54;;;;;;;5.38;2.70;;;;;;;-144.99;100.00;57660.31;346367;28;1544;-66
2021/12/04 00:27:06;;;;;;;5.10;2.92;;;;;;;-144.99;100.00;57660.31;346416;28;1314;-65
2021/12/04 00:27:18;;;;;;;4.60;2.90;;;;;;;-144.99;100.00;57660.31;346490;28;1345;-66
2021/12/04 00:27:30;;;;;;;5.35;2.92;;;;;;;-144.99;100.00;57660.31;346354;28;926;-65
2021/12/04 00:27:44;;;;;;;5.13;2.78;;;;;;;-144.99;100.00;57660.31;346516;28;2343;-65
2021/12/04 00:27:56;;;;;;;5.50;2.67;;;;;;;-144.99;100.00;57660.31;347276;28;2168;-65
2021/12/04 00:28:08;;;;;;;6.15;2.70;;;;;;;-144.99;100.00;57660.31;347920;28;1117;-66
2021/12/04 00:28:20;;;;;;;6.07;2.80;;;;;;;-144.99;100.00;57660.31;347840;28;1182;-66
2021/12/04 00:28:33;;;;;;;4.93;2.60;;;;;;;-144.99;100.00;57660.31;347955;28;1073;-65
2021/12/04 00:28:45;;;;;;;3.97;2.45;;;;;;;-144.99;100.00;57660.31;347967;28;1077;-66
2021/12/04 00:28:57;;;;;;;3.67;2.30;;;;;;;-144.99;100.00;57660.31;347784;28;1490;-65
2021/12/04 00:29:09;;;;;;;3.30;2.53;;;;;;;-144.99;100.00;57660.31;347931;28;1236;-66
2021/12/04 00:29:23;;;;;;;3.45;2.60;;;;;;;-144.99;100.00;57660.31;348024;28;1080;-65
2021/12/04 00:29:35;;;;;;;3.78;2.42;;;;;;;-144.99;100.00;57660.31;347752;28;1054;-65
2021/12/04 00:29:47;;;;;;;3.97;2.33;;;;;;;-144.99;100.00;57660.31;347533;28;1120;-65
2021/12/04 00:29:59;;;;;;;4.25;2.60;;;;;;;-144.99;100.00;57660.31;347591;28;1670;-65
2021/12/04 00:30:11;;;;;;;4.50;2.63;;;;;;;-144.99;100.00;57660.31;347967;28;1117;-65
2021/12/04 00:30:25;;;;;;;3.95;2.33;;;;;;;-144.99;100.00;57660.31;348051;28;1287;-65
2021/12/04 00:30:37;;;;;;;3.50;2.20;;;;;;;-144.99;100.00;57660.31;347835;28;1093;-65
2021/12/04 00:30:50;;;;;;;4.03;2.50;;;;;;;-144.99;100.00;57660.31;346910;28;5085;-65
2021/12/04 00:31:07;;;;;;;4.32;2.60;;;;;;;-144.99;100.00;57660.31;347532;28;1581;-66
2021/12/04 00:31:19;;;;;;;3.63;2.30;;;;;;;-144.99;100.00;57660.31;346933;28;1995;-65
2021/12/04 00:31:33;;;;;;;3.92;2.38;;;;;;;-144.99;100.00;57660.31;347590;28;1104;-66
2021/12/04 00:31:50;;;;;;;4.30;2.42;;;;;;;-144.99;100.00;57660.31;347388;28;979;-65
2021/12/04 00:32:09;;;;;;;4.30;2.40;;;;;;;-144.99;100.00;57660.31;347480;28;1294;-65
2021/12/04 00:32:28;;;;;;;4.35;2.35;;;;;;;-144.99;100.00;57660.31;347642;28;1314;-65
2021/12/04 00:32:42;;;;;;;3.17;2.20;;;;;;;-144.99;100.00;57660.31;346260;28;1106;-66
2021/12/04 00:32:59;;;;;;;3.10;2.22;;;;;;;-144.99;100.00;57660.31;346074;28;1038;-65
2021/12/04 00:33:17;;;;;;;3.50;2.20;;;;;;;-144.99;100.00;57660.31;345340;28;2197;-64
2021/12/04 00:33:31;;;;;;;2.83;2.08;;;;;;;-144.99;100.00;57660.31;347439;28;2208;-66
2021/12/04 00:33:45;;;;;;;2.72;2.00;;;;;;;-144.99;100.00;57660.31;347308;28;873;-66
2021/12/04 00:33:58;;;;;;;2.58;1.88;;;;;;;-144.99;100.00;57660.31;347517;28;1495;-65
2021/12/04 00:34:10;;;;;;;3.33;1.90;;;;;;;-144.99;100.00;57660.31;347566;28;1348;-66
2021/12/04 00:34:25;;;;;;;3.75;2.05;;;;;;;-144.99;100.00;57660.31;347250;28;1147;-65
2021/12/04 00:34:40;;;;;;;3.10;1.98;;;;;;;-144.99;100.00;57660.31;347514;28;1210;-66
2021/12/04 00:35:03;;;;;;;3.08;2.03;;;;;;;-144.99;100.00;57660.31;347411;28;1055;-66
2021/12/04 00:35:33;;;;;;;5.07;1.95;;;;;;;-144.99;100.00;57660.31;346745;28;1662;-67
2021/12/04 00:36:11;;;;;;;3.05;1.92;;;;;;;-144.99;100.00;57660.31;346708;28;1258;-67
2021/12/04 00:37:50;;;;;;;2.72;1.80;;;;;;;-144.99;100.00;57660.31;347667;28;1491;-66
2021/12/04 00:49:11;;;;;;;7.47;3.40;;;;;;;-144.99;100.00;57660.31;347789;28;1049;-66
2021/12/04 00:49:23;;;;;;;6.10;3.20;;;;;;;-144.99;100.00;57660.31;346191;28;1064;-68
2021/12/04 00:49:35;;;;;;;6.47;3.10;;;;;;;-144.99;100.00;57660.31;346343;28;1104;-67
2021/12/04 00:49:47;;;;;;;6.07;3.10;;;;;;;-144.99;100.00;57660.31;346253;28;1964;-67
2021/12/04 00:49:59;;;;;;;6.75;3.20;;;;;;;-144.99;100.00;57660.31;346913;28;2580;-67
2021/12/04 00:50:12;;;;;;;6.65;3.33;;;;;;;-144.99;100.00;57660.31;347460;28;1019;-68
2021/12/04 00:50:24;;;;;;;6.50;3.60;;;;;;;-144.99;100.00;57660.31;347593;28;1298;-67
2021/12/04 00:50:36;;;;;;;5.68;3.28;;;;;;;-144.99;100.00;57660.31;347708;28;1275;-66
2021/12/04 00:50:48;;;;;;;5.10;3.20;;;;;;;-144.99;100.00;57660.31;347537;28;1687;-67
2021/12/04 00:51:00;;;;;;;4.65;3.10;;;;;;;-144.99;100.00;57660.31;347542;28;1615;-67
2021/12/04 00:51:13;;;;;;;6.03;3.33;;;;;;;-144.99;100.00;57660.31;347628;28;1452;-66
2021/12/04 00:51:25;;;;;;;6.82;3.22;;;;;;;-144.99;100.00;57660.31;347669;28;1082;-66
2021/12/04 00:51:42;;;;;;;7.72;3.13;;;;;;;-144.99;100.00;57660.31;346924;28;2450;-66
2021/12/04 00:51:54;;;;;;;6.13;2.60;;;;;;;-144.99;100.00;57660.31;346308;28;1061;-67
2021/12/04 00:52:06;;;;;;;5.75;2.50;;;;;;;-144.99;100.00;57660.31;346361;28;1078;-67
2021/12/04 00:52:18;;;;;;;5.65;2.70;;;;;;;-144.99;100.00;57660.31;346507;28;1817;-66
2021/12/04 00:52:30;;;;;;;4.35;2.50;;;;;;;-144.99;100.00;57660.31;347367;28;2036;-66
2021/12/04 00:52:45;;;;;;;4.40;2.70;;;;;;;-144.99;100.00;57660.31;346178;28;1360;-67
2021/12/04 00:52:57;;;;;;;5.75;2.90;;;;;;;-144.99;100.00;57660.31;346035;28;1949;-67
2021/12/04 00:53:09;;;;;;;5.45;2.70;;;;;;;-144.99;100.00;57660.31;347590;28;1287;-67
2021/12/04 00:53:21;;;;;;;3.92;2.30;;;;;;;-144.99;100.00;57660.31;347545;28;1335;-67
2021/12/04 00:53:33;;;;;;;4.03;2.50;;;;;;;-144.99;100.00;57660.31;347759;28;1251;-66
2021/12/04 00:53:47;;;;;;;4.30;2.72;;;;;;;-144.99;100.00;57660.31;347569;28;2028;-67
2021/12/04 00:53:59;;;;;;;4.05;2.63;;;;;;;-144.99;100.00;57660.31;346643;28;1663;-67
2021/12/04 00:54:12;;;;;;;3.92;2.60;;;;;;;-144.99;100.00;57660.31;347122;28;2258;-67
2021/12/04 00:54:26;;;;;;;3.85;2.60;;;;;;;-144.99;100.00;57660.31;347358;28;1661;-67
2021/12/04 00:54:38;;;;;;;3.53;2.47;;;;;;;-144.99;100.00;57660.31;347484;28;1074;-67
2021/12/04 00:54:50;;;;;;;3.75;2.45;;;;;;;-144.99;100.00;57660.31;347716;28;1359;-66
2021/12/04 00:55:04;;;;;;;4.40;2.50;;;;;;;-144.99;100.00;57660.31;347832;28;1360;-67
2021/12/04 00:55:16;;;;;;;5.43;2.63;;;;;;;-144.99;100.00;57660.31;347198;28;2319;-67
2021/12/04 00:55:28;;;;;;;4.85;2.50;;;;;;;-144.99;100.00;57660.31;347682;28;1342;-67
2021/12/04 00:55:40;;;;;;;4.45;2.55;;;;;;;-144.99;100.00;57660.31;346759;28;2192;-67
2021/12/04 00:55:52;;;;;;;4.18;2.42;;;;;;;-144.99;100.00;57660.31;347942;28;740;-67
2021/12/04 00:56:04;;;;;;;3.90;2.30;;;;;;;-144.99;100.00;57660.31;347392;28;1455;-67
2021/12/04 00:56:16;;;;;;;3.58;2.28;;;;;;;-144.99;100.00;57660.31;347986;28;1076;-67
2021/12/04 00:56:28;;;;;;;4.13;2.60;;;;;;;-144.99;100.00;57660.31;347628;28;1066;-67
2021/12/04 00:56:42;;;;;;;4.55;2.70;;;;;;;-144.99;100.00;57660.31;346873;28;2355;-67
2021/12/04 00:56:55;;;;;;;4.32;2.42;;;;;;;-144.99;100.00;57660.31;347073;28;1129;-67
2021/12/04 00:57:07;;;;;;;4.65;2.40;;;;;;;-144.99;100.00;57660.31;347596;28;1249;-67
2021/12/04 00:57:20;;;;;;;4.07;2.33;;;;;;;-144.99;100.00;57660.31;347539;28;1042;-67
2021/12/04 00:57:32;;;;;;;3.40;2.22;;;;;;;-144.99;100.00;57660.31;347682;28;1058;-67
2021/12/04 00:57:44;;;;;;;3.90;2.33;;;;;;;-144.99;100.00;57660.31;347608;28;1160;-67
2021/12/04 00:57:56;;;;;;;4.30;2.45;;;;;;;-144.99;100.00;57660.31;346533;28;1957;-68
2021/12/04 00:58:08;;;;;;;4.55;2.60;;;;;;;-144.99;100.00;57660.31;344664;28;1091;-67
2021/12/04 00:58:20;;;;;;;3.85;2.55;;;;;;;-144.99;100.00;57660.31;344985;28;1336;-67
2021/12/04 00:58:33;;;;;;;4.13;2.50;;;;;;;-144.99;100.00;57660.31;344105;28;1980;-67
2021/12/04 00:58:45;;;;;;;3.92;2.47;;;;;;;-144.99;100.00;57660.31;343314;28;2175;-66
2021/12/04 00:58:57;;;;;;;3.50;2.40;;;;;;;-144.99;100.00;57660.31;343406;28;1567;-67
2021/12/04 00:59:10;;;;;;;3.63;2.30;;;;;;;-144.99;100.00;57660.31;343460;28;1039;-66
2021/12/04 00:59:23;;;;;;;4.18;2.30;;;;;;;-144.99;100.00;57660.31;343516;28;1080;-67
2021/12/04 00:59:35;;;;;;;4.10;2.30;;;;;;;-144.99;100.00;57660.31;345339;28;1145;-66
2021/12/04 00:59:47;;;;;;;5.10;2.50;;;;;;;-144.99;100.00;57660.31;346268;28;1141;-66
2021/12/04 01:00:00;;;;;;;5.60;2.50;;;;;;;-144.99;100.00;57660.31;345558;28;1631;-66
2021/12/04 01:00:12;;;;;;;5.53;2.50;;;;;;;-144.99;100.00;57660.31;346411;28;1106;-67
2021/12/04 01:00:25;;;;;;;5.75;2.70;;;;;;;-144.99;100.00;57660.31;347183;28;1270;-66
2021/12/04 01:00:39;;;;;;;5.05;2.85;;;;;;;-144.99;100.00;57660.31;347454;28;1069;-67
2021/12/04 01:00:51;;;;;;;5.68;3.10;;;;;;;-144.99;100.00;57660.31;347433;28;1033;-66
2021/12/04 01:01:03;;;;;;;4.95;3.00;;;;;;;-144.99;100.00;57660.31;347744;28;1896;-67
2021/12/04 01:01:17;;;;;;;5.18;3.08;;;;;;;-144.99;100.00;57660.31;347172;28;2293;-67
2021/12/04 01:01:30;;;;;;;5.82;3.00;;;;;;;-144.99;100.00;57660.31;346837;28;2147;-68
2021/12/04 01:01:43;;;;;;;6.30;3.13;;;;;;;-144.99;100.00;57660.31;347605;28;1131;-67
2021/12/04 01:01:55;;;;;;;6.63;3.28;;;;;;;-144.99;100.00;57660.31;347133;28;2151;-67
2021/12/04 01:02:07;;;;;;;6.10;3.20;;;;;;;-144.99;100.00;57660.31;346279;28;1055;-67
2021/12/04 01:02:21;;;;;;;5.20;2.97;;;;;;;-144.99;100.00;57660.31;346395;28;1350;-68
2021/12/04 01:02:33;;;;;;;4.65;2.83;;;;;;;-144.99;100.00;57660.31;346458;28;1341;-66
2021/12/04 01:02:46;;;;;;;4.88;2.85;;;;;;;-144.99;100.00;57660.31;346348;28;1079;-67
2021/12/04 01:02:58;;;;;;;5.50;3.13;;;;;;;-144.99;100.00;57660.31;346464;28;1671;-67
2021/12/04 01:03:10;;;;;;;6.18;3.35;;;;;;;-144.99;100.00;57660.31;347050;28;2056;-67
2021/12/04 01:03:23;;;;;;;5.97;3.22;;;;;;;-144.99;100.00;57660.31;346877;28;2218;-67
2021/12/04 01:03:36;;;;;;;6.20;3.13;;;;;;;-144.99;100.00;57660.31;347447;28;1062;-67
2021/12/04 01:03:48;;;;;;;6.50;3.05;;;;;;;-144.99;100.00;57660.31;347151;28;2367;-67
2021/12/04 01:04:00;;;;;;;6.53;3.35;;;;;;;-144.99;100.00;57660.31;347582;28;1603;-67
2021/12/04 01:04:15;;;;;;;6.70;3.50;;;;;;;-144.99;100.00;57660.31;347764;28;1040;-67
2021/12/04 01:04:27;;;;;;;6.50;3.45;;;;;;;-144.99;100.00;57660.31;346818;28;2136;-67
2021/12/04 01:04:39;;;;;;;6.60;3.55;;;;;;;-144.99;100.00;57660.31;346884;28;2102;-66
2021/12/04 01:04:52;;;;;;;6.13;3.55;;;;;;;-144.99;100.00;57660.31;347622;28;1058;-67
2021/12/04 01:05:04;;;;;;;5.75;3.40;;;;;;;-144.99;100.00;57660.31;346462;28;2015;-67
2021/12/04 01:05:16;;;;;;;6.50;3.50;;;;;;;-144.99;100.00;57660.31;347560;28;1055;-66
2021/12/04 01:05:29;;;;;;;7.75;3.60;;;;;;;-144.99;100.00;57660.31;347522;28;1047;-66
2021/12/04 01:05:41;;;;;;;7.63;3.63;;;;;;;-144.99;100.00;57660.31;346724;28;2067;-67
2021/12/04 01:05:53;;;;;;;6.50;3.33;;;;;;;-144.99;100.00;57660.31;347285;28;1918;-67
2021/12/04 01:06:08;;;;;;;6.75;3.40;;;;;;;-144.99;100.00;57660.31;346150;28;1675;-67
2021/12/04 01:06:20;;;;;;;6.97;3.22;;;;;;;-144.99;100.00;57660.31;346321;28;1345;-66
2021/12/04 01:06:32;;;;;;;6.82;3.30;;;;;;;-144.99;100.00;57660.31;345989;28;1165;-67
2021/12/04 01:06:45;;;;;;;6.90;3.58;;;;;;;-144.99;100.00;57660.31;346066;28;1011;-67
2021/12/04 01:06:57;;;;;;;6.65;3.70;;;;;;;-144.99;100.00;57660.31;346005;28;1653;-67
2021/12/04 01:07:09;;;;;;;6.22;3.45;;;;;;;-144.99;100.00;57660.31;346228;28;1090;-67
2021/12/04 01:07:22;;;;;;;6.97;3.35;;;;;;;-144.99;100.00;57660.31;346169;28;1203;-68
2021/12/04 01:07:34;;;;;;;6.43;3.15;;;;;;;-144.99;100.00;57660.31;346535;28;1027;-67
2021/12/04 01:07:46;;;;;;;6.80;3.50;;;;;;;-144.99;100.00;57660.31;346992;28;2143;-67
2021/12/04 01:07:58;;;;;;;6.35;3.50;;;;;;;-144.99;100.00;57660.31;347248;28;1801;-67
2021/12/04 01:08:10;;;;;;;5.78;3.10;;;;;;;-144.99;100.00;57660.31;347113;28;1973;-66
2021/12/04 01:08:23;;;;;;;5.25;2.97;;;;;;;-144.99;100.00;57660.31;347868;28;2156;-67
2021/12/04 01:08:35;;;;;;;5.70;3.00;;;;;;;-144.99;100.00;57660.31;347932;28;1097;-67
2021/12/04 01:08:47;;;;;;;6.47;3.03;;;;;;;-144.99;100.00;57660.31;347899;28;1089;-66
2021/12/04 01:08:59;;;;;;;7.03;3.08;;;;;;;-144.99;100.00;57660.31;347638;28;1193;-66
2021/12/04 01:09:13;;;;;;;6.32;3.22;;;;;;;-144.99;100.00;57660.31;347762;28;1196;-67
2021/12/04 01:09:26;;;;;;;6.07;3.40;;;;;;;-144.99;100.00;57660.31;347839;28;1171;-67
2021/12/04 01:09:38;;;;;;;5.47;3.25;;;;;;;-144.99;100.00;57660.31;347558;28;1888;-67
2021/12/04 01:09:51;;;;;;;5.03;3.22;;;;;;;-144.99;100.00;57660.31;347746;28;1811;-67
2021/12/04 01:10:06;;;;;;;4.57;3.05;;;;;;;-144.99;100.00;57660.31;347200;28;1224;-67
2021/12/04 01:10:19;;;;;;;4.63;3.08;;;;;;;-144.99;100.00;57660.31;347677;28;2352;-67
2021/12/04 01:10:31;;;;;;;4.88;3.08;;;;;;;-144.99;100.00;57660.31;347894;28;1291;-67
2021/12/04 01:10:43;;;;;;;4.78;2.97;;;;;;;-144.99;100.00;57660.31;347525;28;1037;-67
2021/12/04 01:10:55;;;;;;;4.70;2.92;;;;;;;-144.99;100.00;57660.31;346759;28;1467;-67
2021/12/04 01:11:07;;;;;;;4.93;2.88;;;;;;;-144.99;100.00;57660.31;346313;28;1062;-67
2021/12/04 01:11:19;;;;;;;5.38;2.95;;;;;;;-144.99;100.00;57660.31;346504;28;1084;-67
2021/12/04 01:11:31;;;;;;;5.43;2.80;;;;;;;-144.99;100.00;57660.31;347387;28;1106;-67
2021/12/04 01:11:45;;;;;;;5.45;2.72;;;;;;;-144.99;100.00;57660.31;347904;28;1328;-66
2021/12/04 01:11:57;;;;;;;4.25;2.50;;;;;;;-144.99;100.00;57660.31;347798;28;1212;-66
2021/12/04 01:12:10;;;;;;;4.13;2.50;;;;;;;-144.99;100.00;57660.31;347873;28;1500;-67
2021/12/04 01:12:22;;;;;;;4.75;2.60;;;;;;;-144.99;100.00;57660.31;347768;28;1309;-67
2021/12/04 01:12:34;;;;;;;5.50;2.67;;;;;;;-144.99;100.00;57660.31;347741;28;1209;-67
2021/12/04 01:12:49;;;;;;;5.70;2.67;;;;;;;-144.99;100.00;57660.31;346755;28;1908;-67
2021/12/04 01:13:06;;;;;;;4.47;2.47;;;;;;;-144.99;100.00;57660.31;347514;28;1199;-67
2021/12/04 01:13:18;;;;;;;3.40;2.20;;;;;;;-144.99;100.00;57660.31;347822;28;1335;-67
2021/12/04 01:13:31;;;;;;;4.82;2.20;;;;;;;-144.99;100.00;57660.31;346908;28;2194;-67
2021/12/04 01:13:43;;;;;;;5.05;2.20;;;;;;;-144.99;100.00;57660.31;347097;28;1999;-67
2021/12/04 01:13:55;;;;;;;5.97;2.28;;;;;;;-144.99;100.00;57660.31;347882;28;1102;-67
2021/12/04 01:14:10;;;;;;;4.45;2.20;;;;;;;-144.99;100.00;57660.31;347811;28;1164;-67